<?xml version="1.0" encoding="utf-8"?>
<gpx xmlns:xsi="http://www.w3.org/2001/XMLSchema-instance" xmlns:xsd="http://www.w3.org/2001/XMLSchema" version="1.1" creator="Shapelink.com" xmlns="http://www.topografix.com/GPX/1/1" xmlns:gpxtpx="http://www.garmin.com/xmlschemas/TrackPointExtension/v1">
  <metadata>
    <name>Övrigt 1.54 km, 2019-02-02</name>
    <desc></desc>
    <author><name>Marian Moron</name></author> 
    <time>2019-02-02T20:09:32Z</time>
  </metadata>
  <trk>
    <name>Övrigt 1.54 km, 2019-02-02</name>
    <trkseg>
      <trkpt lat="51.229908183417" lon="4.458062126087">
        <ele>5</ele>
        <time>2019-02-02T20:09:32Z</time>
      </trkpt>
      <trkpt lat="51.230170369249" lon="4.458457248853">
        <ele>1.6</ele>
        <time>2019-02-02T20:09:51Z</time>
      </trkpt>
      <trkpt lat="51.230163831367" lon="4.458802247857">
        <ele>1.6</ele>
        <time>2019-02-02T20:10:08Z</time>
      </trkpt>
      <trkpt lat="51.230285871831" lon="4.458788752998">
        <ele>5.4</ele>
        <time>2019-02-02T20:10:24Z</time>
      </trkpt>
      <trkpt lat="51.230734052024" lon="4.458693786071">
        <ele>10.8</ele>
        <time>2019-02-02T20:10:51Z</time>
      </trkpt>
      <trkpt lat="51.230732375644" lon="4.458657743901">
        <ele>9.4</ele>
        <time>2019-02-02T20:10:59Z</time>
      </trkpt>
      <trkpt lat="51.230891296468" lon="4.458636370056">
        <ele>4.8</ele>
        <time>2019-02-02T20:11:28Z</time>
      </trkpt>
      <trkpt lat="51.231228500305" lon="4.458460350156">
        <ele>0</ele>
        <time>2019-02-02T20:12:02Z</time>
      </trkpt>
      <trkpt lat="51.231269571615" lon="4.45849102791">
        <ele>0</ele>
        <time>2019-02-02T20:12:06Z</time>
      </trkpt>
      <trkpt lat="51.231462522953" lon="4.458356414596">
        <ele>1.6</ele>
        <time>2019-02-02T20:12:28Z</time>
      </trkpt>
      <trkpt lat="51.231608200375" lon="4.458542492776">
        <ele>1.6</ele>
        <time>2019-02-02T20:13:11Z</time>
      </trkpt>
      <trkpt lat="51.231694533945" lon="4.458883803744">
        <ele>1.4</ele>
        <time>2019-02-02T20:13:28Z</time>
      </trkpt>
      <trkpt lat="51.23176871376" lon="4.459197789718">
        <ele>0</ele>
        <time>2019-02-02T20:14:05Z</time>
      </trkpt>
      <trkpt lat="51.231789081777" lon="4.459376240369">
        <ele>0</ele>
        <time>2019-02-02T20:14:28Z</time>
      </trkpt>
      <trkpt lat="51.231853790045" lon="4.459822744182">
        <ele>0</ele>
        <time>2019-02-02T20:15:00Z</time>
      </trkpt>
      <trkpt lat="51.231879941573" lon="4.460004966688">
        <ele>0</ele>
        <time>2019-02-02T20:15:15Z</time>
      </trkpt>
      <trkpt lat="51.231988906273" lon="4.460665041313">
        <ele>2</ele>
        <time>2019-02-02T20:15:54Z</time>
      </trkpt>
      <trkpt lat="51.232104660312" lon="4.461351686561">
        <ele>3</ele>
        <time>2019-02-02T20:16:37Z</time>
      </trkpt>
      <trkpt lat="51.23215344297" lon="4.461404408712">
        <ele>1.8</ele>
        <time>2019-02-02T20:16:42Z</time>
      </trkpt>
      <trkpt lat="51.232141792129" lon="4.461773463769">
        <ele>0.2</ele>
        <time>2019-02-02T20:16:59Z</time>
      </trkpt>
      <trkpt lat="51.232245057137" lon="4.462467233632">
        <ele>2.8</ele>
        <time>2019-02-02T20:17:33Z</time>
      </trkpt>
      <trkpt lat="51.232334994924" lon="4.462949444339">
        <ele>18.4</ele>
        <time>2019-02-02T20:18:09Z</time>
      </trkpt>
      <trkpt lat="51.232120166827" lon="4.463493848744">
        <ele>11.2</ele>
        <time>2019-02-02T20:18:51Z</time>
      </trkpt>
      <trkpt lat="51.231933501914" lon="4.463618487597">
        <ele>7.4</ele>
        <time>2019-02-02T20:19:09Z</time>
      </trkpt>
      <trkpt lat="51.231902321246" lon="4.46362326528">
        <ele>7.6</ele>
        <time>2019-02-02T20:19:11Z</time>
      </trkpt>
      <trkpt lat="51.231561429373" lon="4.463383459121">
        <ele>0</ele>
        <time>2019-02-02T20:19:46Z</time>
      </trkpt>
      <trkpt lat="51.231430671733" lon="4.463245157771">
        <ele>0</ele>
        <time>2019-02-02T20:20:06Z</time>
      </trkpt>
      <trkpt lat="51.231196900542" lon="4.463167792834">
        <ele>0.8</ele>
        <time>2019-02-02T20:20:39Z</time>
      </trkpt>
      <trkpt lat="51.231073351336" lon="4.46322093408">
        <ele>5.2</ele>
        <time>2019-02-02T20:20:54Z</time>
      </trkpt>
      <trkpt lat="51.231021802651" lon="4.463255467508">
        <ele>7.6</ele>
        <time>2019-02-02T20:20:59Z</time>
      </trkpt>
      <trkpt lat="51.230571359345" lon="4.463274662059">
        <ele>29.4</ele>
        <time>2019-02-02T20:21:30Z</time>
      </trkpt>
      <trkpt lat="51.230529617483" lon="4.463263430313">
        <ele>30.2</ele>
        <time>2019-02-02T20:21:36Z</time>
      </trkpt>
      <trkpt lat="51.230395255626" lon="4.463268794729">
        <ele>32.2</ele>
        <time>2019-02-02T20:21:52Z</time>
      </trkpt>
      <trkpt lat="51.2303152923" lon="4.463478593686">
        <ele>11.6</ele>
        <time>2019-02-02T20:22:15Z</time>
      </trkpt>
      <trkpt lat="51.230130806681" lon="4.462813322283">
        <ele>0.8</ele>
        <time>2019-02-02T20:22:56Z</time>
      </trkpt>
      <trkpt lat="51.229908602512" lon="4.462206053628">
        <ele>0</ele>
        <time>2019-02-02T20:23:41Z</time>
      </trkpt>
      <trkpt lat="51.229839535656" lon="4.461899024631">
        <ele>0.8</ele>
        <time>2019-02-02T20:24:05Z</time>
      </trkpt>
      <trkpt lat="51.229805924237" lon="4.461847475946">
        <ele>1</ele>
        <time>2019-02-02T20:24:09Z</time>
      </trkpt>
      <trkpt lat="51.229778683062" lon="4.461776648891">
        <ele>1.4</ele>
        <time>2019-02-02T20:24:15Z</time>
      </trkpt>
      <trkpt lat="51.2296195946" lon="4.461103330864">
        <ele>9.2</ele>
        <time>2019-02-02T20:24:52Z</time>
      </trkpt>
      <trkpt lat="51.229453381523" lon="4.461147754934">
        <ele>9</ele>
        <time>2019-02-02T20:25:25Z</time>
      </trkpt>
      <trkpt lat="51.229007799719" lon="4.461198633067">
        <ele>0</ele>
        <time>2019-02-02T20:26:03Z</time>
      </trkpt>
      <trkpt lat="51.228556099128" lon="4.461220761283">
        <ele>0</ele>
        <time>2019-02-02T20:26:44Z</time>
      </trkpt>
      <trkpt lat="51.228467167169" lon="4.46098212859">
        <ele>3.4</ele>
        <time>2019-02-02T20:27:14Z</time>
      </trkpt>
      <trkpt lat="51.228442272926" lon="4.460875427003">
        <ele>4.4</ele>
        <time>2019-02-02T20:27:22Z</time>
      </trkpt>
      <trkpt lat="51.228397345942" lon="4.460740310775">
        <ele>5.8</ele>
        <time>2019-02-02T20:27:35Z</time>
      </trkpt>
      <trkpt lat="51.228283352102" lon="4.460553981138">
        <ele>1.8</ele>
        <time>2019-02-02T20:27:56Z</time>
      </trkpt>
      <trkpt lat="51.228189893917" lon="4.460249718168">
        <ele>0</ele>
        <time>2019-02-02T20:28:14Z</time>
      </trkpt>
      <trkpt lat="51.228344037058" lon="4.460098005778">
        <ele>2.4</ele>
        <time>2019-02-02T20:28:47Z</time>
      </trkpt>
      <trkpt lat="51.22848300896" lon="4.459431644728">
        <ele>13.2</ele>
        <time>2019-02-02T20:29:19Z</time>
      </trkpt>
      <trkpt lat="51.228540424975" lon="4.458740054159">
        <ele>8.2</ele>
        <time>2019-02-02T20:29:55Z</time>
      </trkpt>
      <trkpt lat="51.228640840137" lon="4.458223980576">
        <ele>3</ele>
        <time>2019-02-02T20:30:20Z</time>
      </trkpt>
      <trkpt lat="51.229087427769" lon="4.458090289271">
        <ele>0.6</ele>
        <time>2019-02-02T20:30:59Z</time>
      </trkpt>
      <trkpt lat="51.229528148071" lon="4.457965901875">
        <ele>0</ele>
        <time>2019-02-02T20:31:28Z</time>
      </trkpt>
      <trkpt lat="51.229737527933" lon="4.457874036251">
        <ele>1.2</ele>
        <time>2019-02-02T20:31:43Z</time>
      </trkpt>
      <trkpt lat="51.229757309217" lon="4.457887782567">
        <ele>0.8</ele>
        <time>2019-02-02T20:31:45Z</time>
      </trkpt>
      <trkpt lat="51.229759907606" lon="4.457961962382">
        <ele>0.6</ele>
        <time>2019-02-02T20:31:49Z</time>
      </trkpt>
      <trkpt lat="51.229743730539" lon="4.457969338454">
        <ele>1</ele>
        <time>2019-02-02T20:31:51Z</time>
      </trkpt>
      <trkpt lat="51.229701401944" lon="4.457983503865">
        <ele>1.8</ele>
        <time>2019-02-02T20:31:55Z</time>
      </trkpt>
      <trkpt lat="51.229671646199" lon="4.45798392296">
        <ele>3.8</ele>
        <time>2019-02-02T20:32:03Z</time>
      </trkpt>
    </trkseg>
  </trk>
</gpx>